Time;durP1;ratioP1;P1;durP2;ratioP2;P2;SDS_P1;SDS_P2;PMS_P1;PMS_P2;Temp;Humidity;BMP_temperature;BMP_pressure;BME280_temperature;BME280_humidity;BME280_pressure;Samples;Min_cycle;Max_cycle;Signal;HPM_P1;HPM_P2
2022/06/07 00:02:38;;;;;;;5.07;4.27;;;;;;;25.18;46.10;95062.25;6214133;28;102768;-62
2022/06/07 00:05:43;;;;;;;6.83;4.23;;;;;;;25.18;46.64;95052.31;6213242;28;103039;-62
2022/06/07 00:08:47;;;;;;;5.10;4.20;;;;;;;25.15;46.43;95057.56;6202917;28;103402;-62
2022/06/07 00:11:51;;;;;;;4.50;4.10;;;;;;;25.15;46.14;95061.00;6212249;28;103276;-62
2022/06/07 00:14:55;;;;;;;7.10;4.33;;;;;;;25.16;46.68;95053.75;6212896;28;103621;-63
2022/06/07 00:17:58;;;;;;;4.47;4.10;;;;;;;25.15;46.16;95060.22;6212808;28;103256;-62
2022/06/07 00:21:01;;;;;;;6.20;4.17;;;;;;;25.16;46.43;95048.41;6202933;28;102990;-62
2022/06/07 00:24:06;;;;;;;4.90;4.40;;;;;;;25.17;46.28;95060.69;6212894;28;103870;-62
2022/06/07 00:27:10;;;;;;;4.20;3.83;;;;;;;25.18;46.32;95064.94;6213034;28;104277;-63
2022/06/07 00:30:14;;;;;;;4.70;4.37;;;;;;;25.22;46.53;95068.56;6205647;28;103090;-62
2022/06/07 00:33:18;;;;;;;7.20;4.13;;;;;;;25.22;46.30;95057.84;6211220;28;103241;-62
2022/06/07 00:36:21;;;;;;;4.20;3.80;;;;;;;25.21;46.68;95072.34;6212579;28;102760;-62
2022/06/07 00:39:25;;;;;;;4.13;3.83;;;;;;;25.22;46.13;95060.50;6212454;28;103071;-62
2022/06/07 00:42:29;;;;;;;4.57;4.17;;;;;;;25.19;46.19;95066.50;6201824;28;103318;-62
2022/06/07 00:45:33;;;;;;;3.90;3.70;;;;;;;25.14;46.14;95064.00;6211102;28;103154;-63
2022/06/07 00:48:36;;;;;;;4.10;3.80;;;;;;;25.07;45.67;95068.00;6212446;28;102799;-62
2022/06/07 00:51:39;;;;;;;4.80;3.67;;;;;;;25.07;46.06;95061.88;6212754;28;103115;-62
2022/06/07 00:54:43;;;;;;;3.57;3.27;;;;;;;25.06;46.19;95055.72;6202333;28;104811;-62
2022/06/07 00:57:47;;;;;;;3.77;3.57;;;;;;;25.07;45.78;95062.66;6212742;28;103254;-62
2022/06/07 01:00:50;;;;;;;4.27;3.40;;;;;;;25.06;45.73;95065.66;6221057;28;102982;-63
2022/06/07 01:03:53;;;;;;;3.30;3.10;;;;;;;25.07;45.54;95065.31;6232099;28;103000;-63
2022/06/07 01:13:39;;;;;;;4.07;3.10;;;;;;;25.04;45.22;95063.28;6236826;28;104362;-62
2022/06/07 01:16:43;;;;;;;5.73;3.03;;;;;;;25.05;45.15;95064.88;6225895;27;103271;-62
2022/06/07 01:19:46;;;;;;;3.67;3.30;;;;;;;25.04;45.07;95060.63;6237724;28;104063;-62
2022/06/07 01:22:51;;;;;;;3.30;3.10;;;;;;;25.05;44.91;95069.44;6236981;28;102933;-63
2022/06/07 01:26:01;;;;;;;3.50;3.20;;;;;;;25.03;44.85;95067.09;6236358;28;103325;-62
2022/06/07 01:29:04;;;;;;;4.37;3.60;;;;;;;25.02;45.04;95081.56;6226300;28;103505;-62
2022/06/07 01:32:08;;;;;;;3.53;3.23;;;;;;;25.01;45.25;95069.28;6237499;28;104144;-62
2022/06/07 01:35:11;;;;;;;4.00;3.60;;;;;;;25.01;44.92;95074.63;6236629;28;103275;-63
2022/06/07 01:38:16;;;;;;;3.93;3.40;;;;;;;24.94;45.22;95069.00;6231644;27;103164;-59
2022/06/07 01:44:41;;;;;;;4.43;3.90;;;;;;;24.89;45.47;95063.84;6225055;28;103246;-62
2022/06/07 01:47:44;;;;;;;4.90;4.47;;;;;;;24.87;45.31;95070.63;6235927;28;103037;-59
2022/06/07 01:50:48;;;;;;;3.80;3.50;;;;;;;24.86;45.51;95061.00;6225510;28;103269;-59
2022/06/07 01:53:52;;;;;;;3.87;3.50;;;;;;;24.89;44.92;95063.84;6231520;28;104270;-60
2022/06/07 01:56:55;;;;;;;5.33;3.50;;;;;;;24.91;45.34;95064.31;6216416;28;104117;-60
2022/06/07 02:00:00;;;;;;;4.47;3.53;;;;;;;24.96;45.05;95066.78;6224027;27;104283;-61
2022/06/07 02:03:03;;;;;;;3.23;3.03;;;;;;;24.94;44.86;95069.00;6225063;28;103039;-60
2022/06/07 02:06:09;;;;;;;3.30;3.10;;;;;;;24.93;45.07;95062.09;6214934;28;103028;-60
2022/06/07 02:09:14;;;;;;;3.60;3.30;;;;;;;24.93;45.17;95062.09;6210665;28;103273;-59
2022/06/07 02:12:17;;;;;;;3.67;3.37;;;;;;;24.94;44.63;95063.66;6205624;28;102773;-60
2022/06/07 02:15:20;;;;;;;3.97;3.67;;;;;;;24.93;44.81;95055.94;6204469;28;103275;-59
2022/06/07 02:18:28;;;;;;;3.90;3.50;;;;;;;24.85;44.64;95062.91;6211065;28;103305;-59
2022/06/07 02:21:31;;;;;;;3.60;3.30;;;;;;;24.80;44.55;95055.06;6210967;28;103176;-59
2022/06/07 02:24:36;;;;;;;4.30;3.00;;;;;;;24.74;44.42;95059.03;6199924;28;103023;-59
2022/06/07 02:27:39;;;;;;;3.80;2.83;;;;;;;24.71;45.00;95065.03;6210536;28;103058;-60
2022/06/07 02:30:44;;;;;;;3.43;3.13;;;;;;;24.72;44.78;95061.25;6210627;28;103303;-59
2022/06/07 02:33:48;;;;;;;3.90;3.00;;;;;;;24.76;44.72;95059.50;6211292;28;104347;-60
2022/06/07 02:36:56;;;;;;;3.90;3.60;;;;;;;24.77;44.75;95056.50;6200434;28;103544;-60
2022/06/07 02:40:02;;;;;;;3.67;3.43;;;;;;;24.81;44.78;95058.53;6210711;28;102849;-60
2022/06/07 02:43:06;;;;;;;3.43;3.13;;;;;;;24.86;44.75;95058.34;6210863;28;104251;-60
2022/06/07 02:46:09;;;;;;;3.60;3.03;;;;;;;24.87;44.38;95060.72;6204651;28;103362;-59
2022/06/07 02:49:12;;;;;;;2.90;2.70;;;;;;;24.90;44.19;95068.09;6205962;28;104056;-60
2022/06/07 02:52:15;;;;;;;3.20;2.90;;;;;;;24.89;44.40;95069.19;6210437;28;103290;-61
2022/06/07 02:55:20;;;;;;;3.70;3.50;;;;;;;24.89;44.36;95077.22;6210783;28;103262;-59
2022/06/07 02:58:23;;;;;;;8.90;4.23;;;;;;;24.91;44.34;95079.59;6199627;28;103173;-60
2022/06/07 03:01:28;;;;;;;4.60;4.10;;;;;;;24.88;44.68;95075.66;6223266;28;102968;-59
2022/06/07 03:04:31;;;;;;;3.97;3.63;;;;;;;24.84;44.75;95079.28;6235595;28;103184;-59
2022/06/07 03:07:35;;;;;;;4.00;3.53;;;;;;;24.82;44.54;95084.97;6234183;28;103222;-63
2022/06/07 03:10:39;;;;;;;4.07;3.70;;;;;;;24.80;44.82;95087.19;6224026;28;102930;-61
2022/06/07 03:13:42;;;;;;;4.17;3.60;;;;;;;24.72;44.84;95093.38;6235213;28;103317;-59
2022/06/07 03:16:46;;;;;;;8.70;4.90;;;;;;;24.73;44.84;95089.59;6233597;28;103041;-59
2022/06/07 03:19:50;;;;;;;9.20;4.27;;;;;;;24.81;46.06;95096.78;6233915;28;103776;-61
2022/06/07 03:22:53;;;;;;;5.00;4.60;;;;;;;24.91;46.64;95103.69;6227395;28;103131;-60
2022/06/07 03:26:05;;;;;;;5.43;4.10;;;;;;;24.91;46.25;95101.00;6234941;28;103037;-61
2022/06/07 03:29:09;;;;;;;4.33;3.80;;;;;;;24.88;46.62;95107.78;6234809;28;103635;-59
2022/06/07 03:32:12;;;;;;;7.20;4.50;;;;;;;24.81;45.55;95107.50;6224826;27;103141;-59
2022/06/07 03:35:16;;;;;;;4.60;4.20;;;;;;;24.67;45.72;95106.88;6234487;28;103251;-59
2022/06/07 03:38:19;;;;;;;5.10;4.60;;;;;;;24.50;45.95;95107.72;6232577;28;103217;-58
2022/06/07 03:41:26;;;;;;;4.60;4.30;;;;;;;24.38;46.29;95116.44;6232979;28;104077;-67
2022/06/07 03:44:29;;;;;;;4.67;4.37;;;;;;;24.30;46.64;95114.53;6223473;28;103308;-58
2022/06/07 03:47:35;;;;;;;8.83;4.50;;;;;;;24.31;46.63;95109.97;6233470;28;103225;-58
2022/06/07 03:50:38;;;;;;;4.70;4.40;;;;;;;24.26;46.50;95113.59;6234577;28;103481;-58
2022/06/07 03:53:43;;;;;;;5.73;4.47;;;;;;;24.26;46.31;95108.25;6234668;28;103137;-58
2022/06/07 03:56:48;;;;;;;4.43;4.10;;;;;;;24.26;46.45;95099.44;6223957;28;104845;-57
2022/06/07 03:59:51;;;;;;;4.17;3.77;;;;;;;24.22;46.43;95098.53;6233608;28;103268;-59
2022/06/07 04:02:54;;;;;;;6.13;3.73;;;;;;;24.28;46.34;95106.06;6234318;28;103303;-59
2022/06/07 04:05:58;;;;;;;3.50;3.30;;;;;;;24.24;46.17;95107.78;6227870;28;104851;-59
2022/06/07 04:09:01;;;;;;;6.07;3.33;;;;;;;24.24;46.01;95112.34;6232614;28;103475;-57
2022/06/07 04:12:06;;;;;;;5.20;3.50;;;;;;;24.19;45.88;95103.41;6233747;28;103110;-56
2022/06/07 04:15:10;;;;;;;3.30;3.07;;;;;;;24.19;46.17;95107.94;6234415;28;103979;-58
2022/06/07 04:18:14;;;;;;;3.80;3.40;;;;;;;24.22;46.28;95107.34;6223509;27;103866;-58
2022/06/07 04:21:18;;;;;;;5.10;3.63;;;;;;;24.26;46.17;95115.50;6236619;27;103279;-58
2022/06/07 04:24:21;;;;;;;3.60;3.30;;;;;;;24.27;46.01;95109.03;6238141;28;103157;-58
2022/06/07 04:27:26;;;;;;;3.97;3.30;;;;;;;24.29;46.11;95112.97;6238431;28;103202;-58
2022/06/07 04:30:29;;;;;;;3.80;3.50;;;;;;;24.29;46.24;95112.97;6226779;28;103515;-57
2022/06/07 04:33:32;;;;;;;3.90;3.50;;;;;;;24.27;46.20;95114.41;6238068;28;103267;-59
2022/06/07 04:36:36;;;;;;;6.03;4.07;;;;;;;24.26;46.14;95112.81;6238119;28;103323;-57
2022/06/07 04:39:40;;;;;;;4.00;3.60;;;;;;;24.25;46.48;95109.38;6233144;28;103447;-58
2022/06/07 04:42:44;;;;;;;4.10;3.70;;;;;;;24.23;46.49;95103.56;6232821;28;104271;-58
2022/06/07 04:45:48;;;;;;;4.70;4.40;;;;;;;24.27;46.27;95111.72;6237700;28;103115;-58
2022/06/07 04:48:51;;;;;;;4.50;4.03;;;;;;;24.25;46.63;95108.59;6237004;28;103103;-57
2022/06/07 04:51:55;;;;;;;4.90;4.30;;;;;;;24.28;46.68;95116.75;6227837;28;103634;-58
2022/06/07 04:54:58;;;;;;;5.10;4.60;;;;;;;24.33;46.35;95105.88;6238486;28;104236;-57
2022/06/07 04:58:02;;;;;;;5.73;5.30;;;;;;;24.35;46.80;95111.69;6237435;28;102947;-60
2022/06/07 05:01:09;;;;;;;6.77;6.27;;;;;;;24.38;46.95;95123.66;6226248;28;104140;-58
2022/06/07 05:04:13;;;;;;;7.20;6.70;;;;;;;24.39;46.43;95123.34;6202727;28;105068;-58
2022/06/07 05:07:16;;;;;;;6.60;6.10;;;;;;;24.41;46.82;95131.84;6212850;28;104064;-57
2022/06/07 05:10:20;;;;;;;7.60;6.60;;;;;;;24.49;47.15;95131.00;6212332;28;103093;-58
2022/06/07 05:13:24;;;;;;;8.07;7.27;;;;;;;24.52;47.16;95126.13;6210756;28;103238;-59
2022/06/07 05:16:27;;;;;;;8.07;7.40;;;;;;;24.55;47.02;95126.28;6205334;28;103067;-57
2022/06/07 05:19:33;;;;;;;7.73;7.17;;;;;;;24.73;46.95;95127.06;6211267;28;103048;-58
2022/06/07 05:22:36;;;;;;;8.97;6.87;;;;;;;24.73;47.21;95125.16;6211696;28;103106;-57
2022/06/07 05:25:53;;;;;;;8.63;6.90;;;;;;;24.66;47.46;95132.84;6202651;28;104078;-58
2022/06/07 05:28:57;;;;;;;8.63;7.70;;;;;;;24.65;47.76;95131.28;6211072;28;103321;-58
2022/06/07 05:32:00;;;;;;;9.10;8.33;;;;;;;24.67;47.67;95141.66;6211533;28;106110;-57
2022/06/07 05:35:05;;;;;;;9.70;8.77;;;;;;;24.67;47.64;95131.75;6211685;28;103161;-60
2022/06/07 05:38:09;;;;;;;10.87;9.80;;;;;;;24.71;47.66;95134.63;6200300;28;103020;-57
2022/06/07 05:41:14;;;;;;;11.10;10.20;;;;;;;24.72;47.46;95138.88;6211534;28;103506;-61
2022/06/07 05:44:20;;;;;;;12.07;11.00;;;;;;;24.74;47.92;95140.13;6211218;28;103240;-57
2022/06/07 05:47:23;;;;;;;11.50;9.57;;;;;;;24.81;47.78;95144.19;6211872;28;103140;-57
2022/06/07 05:50:26;;;;;;;10.47;9.30;;;;;;;24.87;48.06;95138.34;6201643;28;104241;-57
2022/06/07 05:53:29;;;;;;;11.63;10.23;;;;;;;24.92;47.58;95140.84;6212202;28;104135;-58
2022/06/07 05:56:33;;;;;;;11.73;10.23;;;;;;;25.02;47.43;95139.69;6211370;28;103096;-57
2022/06/07 05:59:39;;;;;;;12.47;11.27;;;;;;;25.05;47.49;95141.72;6202645;28;104908;-59
2022/06/07 06:02:42;;;;;;;12.40;11.00;;;;;;;25.05;47.13;95145.19;6230517;27;103497;-58
2022/06/07 06:05:46;;;;;;;11.27;10.17;;;;;;;25.07;47.41;95140.31;6210925;28;103557;-58
2022/06/07 06:12:11;;;;;;;11.70;10.70;;;;;;;25.19;46.97;95138.81;6199588;28;103298;-59
2022/06/07 06:15:16;;;;;;;10.37;9.37;;;;;;;25.22;47.25;95138.97;6211184;28;103063;-58
2022/06/07 06:18:19;;;;;;;9.53;8.63;;;;;;;25.30;46.92;95137.34;6211220;28;103089;-60
2022/06/07 06:21:24;;;;;;;10.47;9.47;;;;;;;25.37;46.51;95127.72;6210119;28;104027;-58
2022/06/07 06:24:27;;;;;;;9.83;8.97;;;;;;;25.48;46.31;95122.75;6200359;28;102899;-59
2022/06/07 06:27:32;;;;;;;9.57;8.77;;;;;;;25.48;46.65;95125.44;6210427;28;103175;-58
2022/06/07 06:30:36;;;;;;;9.67;8.87;;;;;;;25.42;46.70;95128.66;6210656;28;103277;-58
2022/06/07 06:33:41;;;;;;;9.00;8.30;;;;;;;25.40;46.89;95123.63;6203233;28;104245;-58
2022/06/07 06:36:45;;;;;;;8.40;7.60;;;;;;;25.42;46.92;95124.06;6209853;28;102985;-58
2022/06/07 06:39:54;;;;;;;7.73;7.13;;;;;;;25.49;46.72;95112.81;6211052;28;104024;-59
2022/06/07 06:42:57;;;;;;;7.40;6.80;;;;;;;25.67;46.85;95112.38;6210731;28;103221;-58
2022/06/07 06:46:05;;;;;;;8.10;7.30;;;;;;;25.78;46.57;95117.34;6199705;28;103224;-59
2022/06/07 06:49:11;;;;;;;7.07;6.50;;;;;;;25.86;46.54;95121.84;6209977;28;103260;-58
2022/06/07 06:52:14;;;;;;;7.03;6.53;;;;;;;25.91;46.77;95113.63;6210023;28;103959;-59
2022/06/07 06:55:17;;;;;;;8.30;6.63;;;;;;;25.93;46.64;95106.81;6210624;28;104030;-59
2022/06/07 06:58:20;;;;;;;7.63;6.97;;;;;;;25.96;46.24;95105.38;6198993;28;104761;-60
2022/06/07 07:01:28;;;;;;;7.80;6.10;;;;;;;25.99;46.13;95104.72;6223960;28;104181;-58
2022/06/07 07:04:31;;;;;;;6.97;6.47;;;;;;;26.05;46.39;95099.97;6234606;28;103032;-59
2022/06/07 07:07:35;;;;;;;6.93;6.40;;;;;;;26.09;46.53;95096.28;6228805;28;103235;-63
2022/06/07 07:10:38;;;;;;;7.47;5.70;;;;;;;26.09;46.84;95096.28;6230599;28;103304;-64
2022/06/07 07:13:41;;;;;;;6.37;5.87;;;;;;;26.14;46.87;95093.41;6234750;28;103239;-61
2022/06/07 07:16:48;;;;;;;7.20;5.83;;;;;;;26.19;47.09;95095.88;6234830;28;103354;-61
2022/06/07 07:19:52;;;;;;;9.13;6.70;;;;;;;26.23;46.92;95090.66;6223955;28;103169;-60
2022/06/07 07:22:55;;;;;;;6.97;6.37;;;;;;;26.27;47.30;95091.53;6234155;28;103330;-61
2022/06/07 07:26:03;;;;;;;6.70;6.10;;;;;;;26.31;46.67;95089.75;6234731;28;103164;-61
2022/06/07 07:29:06;;;;;;;5.90;5.40;;;;;;;26.36;46.72;95094.13;6234490;28;103143;-61
2022/06/07 07:32:11;;;;;;;6.73;5.50;;;;;;;26.38;46.74;95089.22;6223581;28;103233;-61
2022/06/07 07:35:14;;;;;;;6.60;6.10;;;;;;;26.38;46.30;95087.34;6234153;28;103218;-62
2022/06/07 07:38:17;;;;;;;6.67;6.07;;;;;;;26.33;46.87;95084.06;6234678;28;103101;-62
2022/06/07 07:41:23;;;;;;;6.30;5.70;;;;;;;26.30;46.94;95074.78;6228865;28;103209;-59
2022/06/07 07:44:28;;;;;;;6.27;5.77;;;;;;;26.46;46.45;95082.97;6229241;28;103105;-58
2022/06/07 07:47:32;;;;;;;6.40;5.73;;;;;;;26.56;46.34;95072.59;6234300;28;103326;-58
2022/06/07 07:50:37;;;;;;;6.67;6.17;;;;;;;26.56;46.58;95069.94;6234248;28;103217;-58
2022/06/07 07:53:40;;;;;;;6.60;5.57;;;;;;;26.55;46.45;95062.22;6223265;27;103064;-59
2022/06/07 07:56:43;;;;;;;6.20;5.60;;;;;;;26.60;46.24;95061.97;6237525;28;103177;-58
2022/06/07 07:59:46;;;;;;;6.83;5.70;;;;;;;26.61;46.82;95047.44;6237974;28;103266;-59
2022/06/07 08:02:52;;;;;;;5.93;5.53;;;;;;;26.66;46.45;95049.94;6212999;28;103568;-58
2022/06/07 08:05:55;;;;;;;6.03;5.50;;;;;;;26.60;46.39;95040.50;6202095;27;103181;-63
2022/06/07 08:09:01;;;;;;;5.90;5.50;;;;;;;26.57;46.51;95038.50;6213849;28;103233;-61
2022/06/07 08:12:06;;;;;;;6.03;5.53;;;;;;;26.51;46.49;95035.22;6212646;28;103017;-60
2022/06/07 08:15:11;;;;;;;5.70;5.30;;;;;;;26.45;45.93;95030.44;6209663;28;103308;-63
2022/06/07 08:18:15;;;;;;;6.20;5.80;;;;;;;26.43;46.33;95024.63;6207234;28;103076;-61
2022/06/07 08:21:22;;;;;;;5.77;5.37;;;;;;;26.45;46.40;95025.84;6213781;28;103742;-61
2022/06/07 08:24:25;;;;;;;6.50;6.00;;;;;;;26.46;46.81;95029.31;6212217;28;103142;-61
2022/06/07 08:27:28;;;;;;;6.00;5.50;;;;;;;26.45;46.52;95017.00;6202627;28;103444;-61
2022/06/07 08:30:32;;;;;;;6.20;5.67;;;;;;;26.39;46.24;95023.72;6212902;28;103191;-61
2022/06/07 08:40:26;;;;;;;6.10;5.50;;;;;;;26.47;45.89;95009.41;6202095;27;103262;-63
2022/06/07 08:43:30;;;;;;;6.03;5.53;;;;;;;26.49;45.62;95012.53;6212673;28;103281;-62
2022/06/07 08:46:36;;;;;;;6.20;5.80;;;;;;;26.54;46.03;95006.94;6213083;28;103039;-61
2022/06/07 08:49:40;;;;;;;6.10;5.60;;;;;;;26.56;45.93;95007.41;6207640;28;103069;-61
2022/06/07 08:52:45;;;;;;;6.20;5.70;;;;;;;26.51;45.68;95000.34;6208773;28;104707;-61
2022/06/07 08:55:52;;;;;;;6.00;5.50;;;;;;;26.49;46.09;94989.16;6211361;28;103078;-61
2022/06/07 08:58:59;;;;;;;5.20;4.80;;;;;;;26.51;45.67;94997.66;6212901;28;103220;-61
2022/06/07 09:02:15;;;;;;;4.73;4.43;;;;;;;26.52;45.45;94985.81;6220988;28;103149;-61
2022/06/07 09:05:19;;;;;;;5.43;5.00;;;;;;;26.57;45.08;94990.19;6237659;28;102929;-61
2022/06/07 09:08:25;;;;;;;5.57;5.20;;;;;;;26.58;44.96;94981.00;6236509;28;103729;-61
2022/06/07 09:15:09;;;;;;;3.80;3.60;;;;;;;26.47;41.70;94979.88;6231508;28;103134;-61
2022/06/07 09:18:15;;;;;;;3.97;3.77;;;;;;;26.47;41.72;94977.19;6237064;28;103016;-61
2022/06/07 09:21:27;;;;;;;4.23;4.00;;;;;;;26.26;40.60;94978.09;6237367;28;103156;-61
2022/06/07 09:24:33;;;;;;;4.03;3.73;;;;;;;26.22;40.71;94966.47;6226573;28;102952;-61
2022/06/07 09:27:36;;;;;;;4.30;4.00;;;;;;;26.33;41.13;94976.75;6236858;28;103127;-61
2022/06/07 09:30:41;;;;;;;4.40;4.10;;;;;;;26.40;41.32;94963.56;6236998;28;102966;-62
2022/06/07 09:33:51;;;;;;;3.73;3.50;;;;;;;26.49;41.21;94959.63;6236328;28;103331;-61
2022/06/07 09:37:07;;;;;;;3.93;3.73;;;;;;;26.50;41.74;94958.53;6225833;28;103081;-61
2022/06/07 09:40:22;;;;;;;4.50;4.10;;;;;;;26.50;41.59;94960.41;6236558;28;103235;-61
2022/06/07 09:43:28;;;;;;;6.50;4.63;;;;;;;26.49;41.91;94953.50;6236458;28;103088;-61
2022/06/07 09:46:32;;;;;;;4.00;3.80;;;;;;;26.44;42.46;94948.34;6230760;28;103029;-59
2022/06/07 09:49:38;;;;;;;4.50;4.10;;;;;;;26.47;42.40;94945.00;6233528;28;104035;-62
2022/06/07 09:52:47;;;;;;;3.93;3.67;;;;;;;26.44;42.31;94951.03;6236910;28;104048;-60
2022/06/07 09:56:04;;;;;;;5.13;4.80;;;;;;;26.37;41.92;94945.44;6235840;28;103255;-60
2022/06/07 09:59:34;;;;;;;4.77;4.47;;;;;;;26.27;41.74;94942.09;6224609;28;103327;-60
2022/06/07 10:03:21;;;;;;;5.23;4.80;;;;;;;26.22;41.88;94936.19;6212346;28;104069;-60
2022/06/07 10:06:28;;;;;;;5.10;4.70;;;;;;;26.28;41.26;94934.81;6211210;28;102811;-59
2022/06/07 10:09:51;;;;;;;5.10;4.70;;;;;;;26.23;40.60;94919.75;6200818;28;103043;-59
2022/06/07 10:13:06;;;;;;;4.73;4.43;;;;;;;26.28;41.35;94921.41;6211554;28;104408;-59
2022/06/07 10:16:17;;;;;;;4.77;4.33;;;;;;;26.31;41.41;94919.94;6210981;28;102867;-59
2022/06/07 10:19:33;;;;;;;4.40;4.20;;;;;;;26.20;40.80;94920.38;6210772;28;102994;-59
2022/06/07 10:23:12;;;;;;;4.33;3.97;;;;;;;26.11;40.55;94922.41;6201580;28;103667;-60
2022/06/07 10:26:27;;;;;;;4.83;4.53;;;;;;;26.14;41.05;94916.38;6178411;28;103056;-60
2022/06/07 10:29:49;;;;;;;4.97;4.57;;;;;;;26.11;40.92;94911.69;6210937;28;103267;-60
2022/06/07 10:33:32;;;;;;;4.23;3.93;;;;;;;26.17;40.89;94907.66;6200379;28;102760;-59
2022/06/07 10:36:44;;;;;;;4.70;4.27;;;;;;;26.18;40.50;94906.53;6210639;28;103147;-57
2022/06/07 10:40:08;;;;;;;4.40;4.20;;;;;;;26.19;40.48;94894.69;6209946;28;103382;-56
2022/06/07 10:43:20;;;;;;;4.57;4.17;;;;;;;26.22;41.13;94890.56;6204958;28;104472;-57
2022/06/07 10:46:27;;;;;;;4.70;4.33;;;;;;;26.29;40.35;94898.81;6207534;28;103095;-57
2022/06/07 10:49:43;;;;;;;4.43;4.13;;;;;;;26.28;41.05;94892.69;6219319;28;103186;-57
2022/06/07 10:52:55;;;;;;;5.07;4.57;;;;;;;26.20;40.73;94880.16;6232205;28;103702;-59
2022/06/07 10:56:06;;;;;;;4.80;4.50;;;;;;;26.07;41.14;94877.81;6211096;28;103404;-60
2022/06/07 10:59:18;;;;;;;4.60;4.30;;;;;;;26.04;40.50;94876.56;6232771;28;103064;-59
2022/06/07 11:02:31;;;;;;;5.43;4.90;;;;;;;26.11;40.42;94868.75;6223489;28;103062;-59
2022/06/07 11:09:23;;;;;;;5.17;4.70;;;;;;;26.18;41.17;94862.81;6219091;28;103011;-59
2022/06/07 11:12:40;;;;;;;4.50;4.20;;;;;;;26.07;40.70;94867.88;6232410;28;103712;-59
2022/06/07 11:15:55;;;;;;;5.13;4.33;;;;;;;26.00;41.06;94870.31;6233225;28;103743;-61
2022/06/07 11:19:01;;;;;;;5.20;4.70;;;;;;;25.98;41.09;94865.25;6222752;28;103479;-59
2022/06/07 11:22:07;;;;;;;4.33;4.03;;;;;;;25.92;39.88;94866.63;6235133;28;103852;-62
2022/06/07 11:25:28;;;;;;;4.47;4.17;;;;;;;25.91;40.55;94866.94;6233232;28;102987;-60
2022/06/07 11:28:34;;;;;;;4.00;3.70;;;;;;;25.97;40.69;94863.69;6228339;28;104154;-60
2022/06/07 11:31:43;;;;;;;4.63;4.07;;;;;;;26.10;40.08;94856.47;6227306;27;103336;-60
2022/06/07 11:34:46;;;;;;;5.10;4.50;;;;;;;26.13;40.94;94855.78;6248342;27;104645;-60
2022/06/07 11:38:24;;;;;;;5.27;4.70;;;;;;;26.13;40.60;94849.66;6220582;28;103042;-60
2022/06/07 11:41:51;;;;;;;5.10;4.70;;;;;;;26.10;40.97;94848.44;6214582;27;104127;-60
2022/06/07 11:45:18;;;;;;;4.30;4.00;;;;;;;26.06;41.19;94850.22;6227432;28;103455;-61
2022/06/07 11:48:37;;;;;;;4.33;4.13;;;;;;;26.08;40.80;94842.63;6225417;28;104311;-62
2022/06/07 11:51:40;;;;;;;4.00;3.70;;;;;;;26.05;40.51;94834.47;6220892;28;104169;-61
2022/06/07 11:54:51;;;;;;;4.00;3.70;;;;;;;26.03;40.34;94832.09;6236203;28;103480;-59
2022/06/07 11:58:14;;;;;;;4.17;3.87;;;;;;;26.10;39.94;94832.34;6237125;28;103007;-59
2022/06/07 12:01:32;;;;;;;5.07;4.33;;;;;;;26.08;40.51;94821.16;6230380;28;103212;-60
2022/06/07 12:05:04;;;;;;;4.93;4.50;;;;;;;26.11;40.50;94820.50;6228620;28;103850;-61
2022/06/07 12:08:17;;;;;;;5.50;5.03;;;;;;;26.13;40.64;94818.25;6236689;28;103265;-62
2022/06/07 12:11:24;;;;;;;5.17;4.60;;;;;;;26.12;40.41;94815.91;6230630;28;103993;-61
2022/06/07 12:14:34;;;;;;;4.80;4.50;;;;;;;26.14;40.03;94817.13;6225716;28;103291;-61
2022/06/07 12:17:39;;;;;;;5.13;4.10;;;;;;;25.95;39.56;94812.31;6228660;28;103582;-60
2022/06/07 12:20:45;;;;;;;4.07;3.77;;;;;;;25.95;40.17;94808.84;6220661;28;102797;-61
2022/06/07 12:23:50;;;;;;;4.00;3.70;;;;;;;25.93;39.13;94803.03;6236713;28;103157;-60
2022/06/07 12:26:54;;;;;;;4.00;3.70;;;;;;;25.94;40.02;94794.66;6227986;28;104029;-61
2022/06/07 12:30:03;;;;;;;3.83;3.43;;;;;;;25.92;39.54;94790.75;6234347;28;103209;-62
2022/06/07 12:33:15;;;;;;;4.33;3.93;;;;;;;25.95;39.61;94795.44;6226448;28;103046;-63
2022/06/07 12:36:22;;;;;;;4.40;4.10;;;;;;;25.98;39.32;94789.41;6226333;27;103565;-62
2022/06/07 12:39:27;;;;;;;4.80;4.37;;;;;;;26.07;39.65;94786.63;6230910;28;103058;-60
2022/06/07 12:42:33;;;;;;;4.30;4.00;;;;;;;26.08;39.35;94783.63;6228223;27;104128;-60
2022/06/07 12:45:37;;;;;;;4.80;4.40;;;;;;;26.09;39.31;94779.03;6228138;28;104068;-61
2022/06/07 12:48:41;;;;;;;5.10;4.10;;;;;;;26.09;38.98;94779.81;6225238;28;104136;-62
2022/06/07 12:51:55;;;;;;;4.40;4.10;;;;;;;26.03;39.53;94783.81;6218460;28;105692;-61
2022/06/07 12:55:08;;;;;;;4.10;3.80;;;;;;;25.97;39.53;94787.84;6222045;28;103421;-62
2022/06/07 12:58:19;;;;;;;4.10;3.80;;;;;;;25.91;39.24;94789.19;6229433;28;103285;-59
2022/06/07 13:01:25;;;;;;;3.93;3.60;;;;;;;26.01;39.21;94787.97;6211716;28;103358;-60
2022/06/07 13:04:35;;;;;;;3.40;3.20;;;;;;;26.04;39.10;94782.72;6215860;28;103053;-61
2022/06/07 13:07:47;;;;;;;4.00;3.70;;;;;;;26.10;39.06;94777.91;6236626;28;104300;-63
2022/06/07 13:10:50;;;;;;;4.00;3.70;;;;;;;26.04;38.11;94788.06;6220088;28;103418;-60
2022/06/07 13:13:54;;;;;;;3.57;3.37;;;;;;;25.81;37.41;94785.06;6230189;28;102925;-62
2022/06/07 13:17:13;;;;;;;4.00;3.80;;;;;;;25.88;37.78;94785.28;6236533;28;103577;-59
2022/06/07 13:20:26;;;;;;;3.93;3.73;;;;;;;26.02;38.25;94779.59;6230166;28;104021;-60
2022/06/07 13:23:40;;;;;;;4.10;3.80;;;;;;;26.09;38.73;94779.03;6224308;27;103080;-60
2022/06/07 13:26:47;;;;;;;4.20;3.90;;;;;;;26.11;38.19;94774.91;6235480;28;103733;-60
2022/06/07 13:29:50;;;;;;;4.10;3.63;;;;;;;26.14;38.50;94771.53;6231654;27;104185;-59
2022/06/07 13:33:13;;;;;;;3.90;3.70;;;;;;;26.20;39.06;94770.16;6214159;28;103235;-60
2022/06/07 13:36:34;;;;;;;4.10;3.80;;;;;;;26.14;38.21;94760.03;6218411;28;103989;-61
2022/06/07 13:39:42;;;;;;;5.10;3.40;;;;;;;26.20;39.01;94762.13;6209737;28;103052;-60
2022/06/07 13:43:00;;;;;;;4.13;3.83;;;;;;;26.09;38.01;94761.03;6219889;28;104310;-61
2022/06/07 13:46:06;;;;;;;3.87;3.33;;;;;;;26.05;38.20;94754.03;6214409;27;103512;-60
2022/06/07 13:56:23;;;;;;;3.70;3.50;;;;;;;25.99;38.54;94756.88;6218769;28;104401;-61
2022/06/07 13:59:26;;;;;;;4.17;3.87;;;;;;;26.06;38.60;94742.16;6212642;28;103490;-60
2022/06/07 14:02:29;;;;;;;4.03;3.73;;;;;;;26.08;38.33;94754.13;6211034;28;103254;-61
2022/06/07 14:05:34;;;;;;;3.50;3.30;;;;;;;26.09;39.10;94744.94;6217738;28;103222;-61
2022/06/07 14:08:37;;;;;;;4.27;3.93;;;;;;;26.09;38.74;94741.50;6202744;28;103064;-60
2022/06/07 14:11:42;;;;;;;4.37;4.03;;;;;;;26.05;39.12;94738.72;6214591;28;103570;-61
2022/06/07 14:14:45;;;;;;;4.73;4.27;;;;;;;26.07;39.37;94744.50;6213791;28;104154;-61
2022/06/07 14:17:51;;;;;;;3.93;3.70;;;;;;;26.11;39.15;94741.94;6230579;28;104081;-60
2022/06/07 14:20:54;;;;;;;3.90;3.60;;;;;;;26.15;39.23;94738.22;6208795;28;103152;-60
2022/06/07 14:23:58;;;;;;;5.00;4.47;;;;;;;26.19;38.72;94730.28;6222694;28;103676;-60
2022/06/07 14:27:02;;;;;;;5.40;3.87;;;;;;;26.21;39.54;94728.84;6230589;28;103191;-62
2022/06/07 14:30:07;;;;;;;4.27;3.97;;;;;;;26.24;39.07;94722.00;6219362;28;105765;-62
2022/06/07 14:33:11;;;;;;;4.83;4.30;;;;;;;26.25;38.89;94726.25;6215554;28;103858;-60
2022/06/07 14:36:15;;;;;;;4.63;4.23;;;;;;;26.26;39.44;94733.19;6213018;28;104134;-58
2022/06/07 14:39:20;;;;;;;4.43;4.13;;;;;;;26.23;38.62;94728.50;6212524;28;103742;-60
2022/06/07 14:42:25;;;;;;;3.80;3.50;;;;;;;26.02;37.72;94720.59;6201826;28;103435;-59
2022/06/07 14:45:35;;;;;;;3.77;3.47;;;;;;;26.02;38.34;94719.81;6224778;28;103165;-60
2022/06/07 14:48:42;;;;;;;3.90;3.60;;;;;;;26.04;38.63;94718.34;6214897;28;103012;-61
2022/06/07 14:51:46;;;;;;;3.90;3.50;;;;;;;26.07;38.32;94712.34;6209287;28;103370;-60
2022/06/07 14:54:49;;;;;;;4.00;3.50;;;;;;;26.08;38.73;94708.53;6206522;27;103818;-59
2022/06/07 14:57:55;;;;;;;3.97;3.77;;;;;;;26.07;38.59;94711.56;6228175;28;103202;-62
2022/06/07 15:00:58;;;;;;;3.90;3.60;;;;;;;26.09;38.81;94706.63;6217576;28;103461;-61
2022/06/07 15:04:04;;;;;;;5.23;4.73;;;;;;;25.79;37.16;94700.72;6224844;28;102941;-61